Time;durP1;ratioP1;P1;durP2;ratioP2;P2;SDS_P1;SDS_P2;PMS_P1;PMS_P2;Temp;Humidity;BMP_temperature;BMP_pressure;BME280_temperature;BME280_humidity;BME280_pressure;Samples;Min_cycle;Max_cycle;Signal;HPM_P1;HPM_P2
2023/10/25 00:00:40;;;;;;;1.60;1.20;;;9.80;98.20;;;;;;5024941;28;20460;-80
2023/10/25 00:03:10;;;;;;;1.60;1.10;;;9.80;98.20;;;;;;5032989;28;20509;-81
2023/10/25 00:05:37;;;;;;;1.60;1.20;;;9.80;98.20;;;;;;5024128;28;20463;-79
2023/10/25 00:08:04;;;;;;;1.60;1.20;;;9.90;98.20;;;;;;5028948;28;20557;-79
2023/10/25 00:10:31;;;;;;;1.60;1.20;;;9.90;98.20;;;;;;5027505;28;20466;-79
2023/10/25 00:12:57;;;;;;;1.60;1.17;;;9.90;98.20;;;;;;5031552;28;21036;-80
2023/10/25 00:15:24;;;;;;;1.60;1.20;;;9.90;98.20;;;;;;5023571;28;20463;-79
2023/10/25 00:17:52;;;;;;;1.60;1.20;;;9.90;98.20;;;;;;5032319;28;20474;-79
2023/10/25 00:20:19;;;;;;;1.60;1.10;;;9.90;98.20;;;;;;5027929;28;20455;-79
2023/10/25 00:22:46;;;;;;;1.60;1.10;;;9.90;98.20;;;;;;5030033;28;20484;-79
2023/10/25 00:25:13;;;;;;;1.60;1.30;;;9.90;98.20;;;;;;5026298;28;23113;-79
2023/10/25 00:27:39;;;;;;;1.60;1.20;;;9.90;98.20;;;;;;5028393;28;21089;-79
2023/10/25 00:30:07;;;;;;;1.60;1.20;;;9.90;98.20;;;;;;5025269;28;20860;-79
2023/10/25 00:32:34;;;;;;;1.60;1.20;;;9.90;98.20;;;;;;5026508;28;21161;-79
2023/10/25 00:35:02;;;;;;;1.60;1.20;;;9.90;98.20;;;;;;5021359;28;20477;-79
2023/10/25 00:37:29;;;;;;;1.60;1.20;;;9.90;98.20;;;;;;5027213;28;20655;-79
2023/10/25 00:39:56;;;;;;;1.60;1.20;;;9.80;98.20;;;;;;5017183;28;20460;-79
2023/10/25 00:42:23;;;;;;;1.57;1.10;;;9.80;98.20;;;;;;5027703;28;21046;-79
2023/10/25 00:44:50;;;;;;;1.60;1.13;;;9.80;98.20;;;;;;5025604;28;21010;-79
2023/10/25 00:47:17;;;;;;;1.60;1.23;;;9.80;98.20;;;;;;5024603;28;20478;-80
2023/10/25 00:49:44;;;;;;;1.60;1.20;;;9.80;98.20;;;;;;5032734;28;20479;-79
2023/10/25 00:52:12;;;;;;;1.60;1.20;;;9.80;98.20;;;;;;5026672;28;20478;-78
2023/10/25 00:54:39;;;;;;;1.60;1.20;;;9.80;98.20;;;;;;5031163;28;20466;-79
2023/10/25 00:57:06;;;;;;;1.60;1.20;;;9.80;98.20;;;;;;5024268;28;20496;-79
2023/10/25 00:59:32;;;;;;;1.60;1.20;;;9.80;98.20;;;;;;5033715;28;20837;-81
2023/10/25 01:02:00;;;;;;;1.60;1.20;;;9.70;98.20;;;;;;5022382;28;20475;-79
2023/10/25 01:04:28;;;;;;;1.60;1.20;;;9.70;98.20;;;;;;5031465;28;20558;-78
2023/10/25 01:06:55;;;;;;;1.60;1.20;;;9.70;98.20;;;;;;5023366;28;20520;-78
2023/10/25 01:09:23;;;;;;;1.60;1.20;;;9.70;98.20;;;;;;5031854;28;20484;-80
2023/10/25 01:11:50;;;;;;;1.60;1.20;;;9.70;98.20;;;;;;5023319;28;20482;-78
2023/10/25 01:14:16;;;;;;;1.60;1.10;;;9.70;98.20;;;;;;5038104;28;20585;-80
2023/10/25 01:16:43;;;;;;;1.60;1.20;;;9.70;98.20;;;;;;5025975;28;20487;-79
2023/10/25 01:19:10;;;;;;;1.60;1.20;;;9.70;98.20;;;;;;5032406;28;20459;-79
2023/10/25 01:21:37;;;;;;;1.60;1.17;;;9.80;98.20;;;;;;5026466;28;20476;-80
2023/10/25 01:24:06;;;;;;;1.60;1.20;;;9.80;98.20;;;;;;5037216;28;20470;-80
2023/10/25 01:26:33;;;;;;;1.60;1.17;;;9.80;98.20;;;;;;5024570;28;20482;-79
2023/10/25 01:28:59;;;;;;;1.60;1.17;;;9.80;98.20;;;;;;5031311;28;20487;-79
2023/10/25 01:31:26;;;;;;;1.60;1.10;;;9.80;98.20;;;;;;5019648;28;20480;-78
2023/10/25 01:33:53;;;;;;;1.60;1.20;;;9.80;98.20;;;;;;5032105;28;20468;-79
2023/10/25 01:36:20;;;;;;;1.60;1.20;;;9.80;98.20;;;;;;5018516;28;20807;-78
2023/10/25 01:38:46;;;;;;;1.60;1.20;;;9.80;98.20;;;;;;5032111;28;20547;-78
2023/10/25 01:41:16;;;;;;;1.60;1.10;;;9.80;98.20;;;;;;5019702;28;20486;-78
2023/10/25 01:43:43;;;;;;;1.60;1.20;;;9.80;98.20;;;;;;5036994;28;20635;-79
2023/10/25 01:46:10;;;;;;;1.60;1.10;;;9.80;98.20;;;;;;5014196;28;20873;-78
2023/10/25 01:48:37;;;;;;;1.60;1.20;;;9.80;98.20;;;;;;5031137;28;20484;-78
2023/10/25 01:51:05;;;;;;;1.60;1.20;;;9.80;98.20;;;;;;5008207;28;20464;-78
2023/10/25 01:53:33;;;;;;;1.60;1.20;;;9.80;98.20;;;;;;5039053;28;21015;-78
2023/10/25 01:56:00;;;;;;;1.60;1.20;;;9.80;98.20;;;;;;5013901;28;20494;-78
2023/10/25 01:58:28;;;;;;;1.60;1.10;;;9.80;98.20;;;;;;5043515;28;20482;-79
2023/10/25 02:00:55;;;;;;;1.83;1.70;;;9.80;98.20;;;;;;5020374;28;20473;-78
2023/10/25 02:03:22;;;;;;;1.57;1.10;;;9.80;98.20;;;;;;5044489;28;20467;-79
2023/10/25 02:05:48;;;;;;;1.60;1.10;;;9.80;98.20;;;;;;5014680;28;20505;-78
2023/10/25 02:08:15;;;;;;;1.60;1.30;;;9.80;98.20;;;;;;5026033;28;20459;-78
2023/10/25 02:10:42;;;;;;;1.60;1.13;;;9.80;98.20;;;;;;5030041;28;20462;-78
2023/10/25 02:13:09;;;;;;;1.60;1.20;;;9.80;98.20;;;;;;5035398;28;20533;-78
2023/10/25 02:15:37;;;;;;;1.60;1.20;;;9.70;98.20;;;;;;5029558;28;20474;-78
2023/10/25 02:18:04;;;;;;;1.60;1.20;;;9.70;98.20;;;;;;5016013;28;20478;-78
2023/10/25 02:20:30;;;;;;;1.60;1.20;;;9.70;98.20;;;;;;5029258;28;20470;-78
2023/10/25 02:22:57;;;;;;;1.60;1.20;;;9.70;98.20;;;;;;5035699;28;20828;-77
2023/10/25 02:25:24;;;;;;;1.60;1.30;;;9.70;98.20;;;;;;5030490;28;20467;-78
2023/10/25 02:27:51;;;;;;;2.07;1.30;;;9.70;98.20;;;;;;5037966;28;20478;-78
2023/10/25 02:30:17;;;;;;;1.60;1.20;;;9.70;98.20;;;;;;5032234;28;20487;-80
2023/10/25 02:32:46;;;;;;;1.60;1.10;;;9.60;98.20;;;;;;5012605;28;20610;-78
2023/10/25 02:35:12;;;;;;;1.60;1.20;;;9.60;98.20;;;;;;5033368;28;20485;-78
2023/10/25 02:37:39;;;;;;;1.60;1.13;;;9.60;98.20;;;;;;5036142;28;21045;-78
2023/10/25 02:40:07;;;;;;;1.60;1.10;;;9.60;98.20;;;;;;5029852;28;20474;-77
2023/10/25 02:42:35;;;;;;;1.60;1.20;;;9.60;98.20;;;;;;5019329;28;20970;-78
2023/10/25 02:45:02;;;;;;;1.60;1.20;;;9.60;98.20;;;;;;5030745;28;20490;-78
2023/10/25 02:47:28;;;;;;;1.60;1.20;;;9.60;98.20;;;;;;5013326;28;20498;-78
2023/10/25 02:49:57;;;;;;;1.60;1.20;;;9.60;98.20;;;;;;5027775;28;20498;-78
2023/10/25 02:52:24;;;;;;;1.60;1.20;;;9.60;98.20;;;;;;5033175;28;20489;-78
2023/10/25 02:54:54;;;;;;;1.60;1.20;;;9.60;98.20;;;;;;5031576;28;20490;-77
2023/10/25 02:57:20;;;;;;;1.60;1.30;;;9.60;98.20;;;;;;5011721;28;20492;-77
2023/10/25 02:59:47;;;;;;;1.60;1.10;;;9.60;98.20;;;;;;5024851;28;20463;-79
2023/10/25 03:02:14;;;;;;;1.60;1.20;;;9.60;98.20;;;;;;5032028;28;20585;-79
2023/10/25 03:04:41;;;;;;;1.60;1.10;;;9.60;98.20;;;;;;5032563;28;20459;-79
2023/10/25 03:07:09;;;;;;;1.60;1.20;;;9.60;98.20;;;;;;5030678;28;20490;-80
2023/10/25 03:09:36;;;;;;;1.60;1.27;;;9.60;98.20;;;;;;5036006;28;20493;-80
2023/10/25 03:12:03;;;;;;;1.60;1.30;;;9.50;98.20;;;;;;5020379;28;20475;-80
2023/10/25 03:14:30;;;;;;;1.60;1.20;;;9.50;98.20;;;;;;5025952;28;20476;-80
2023/10/25 03:16:59;;;;;;;1.60;1.10;;;9.50;98.20;;;;;;5025049;28;20877;-80
2023/10/25 03:19:29;;;;;;;1.60;1.20;;;9.50;98.20;;;;;;5033930;28;20529;-81
2023/10/25 03:21:55;;;;;;;1.60;1.10;;;9.50;98.20;;;;;;5033434;28;20482;-79
2023/10/25 03:24:23;;;;;;;1.60;1.10;;;9.50;98.20;;;;;;5040834;28;20469;-79
2023/10/25 03:26:50;;;;;;;1.60;1.20;;;9.50;98.20;;;;;;5019189;28;20566;-81
2023/10/25 03:29:17;;;;;;;1.60;1.20;;;9.50;98.20;;;;;;5028832;28;20888;-80
2023/10/25 03:31:44;;;;;;;1.60;1.20;;;9.50;98.20;;;;;;5032846;28;20474;-80
2023/10/25 03:34:11;;;;;;;1.60;1.10;;;9.50;98.20;;;;;;5039792;28;20725;-78
2023/10/25 03:36:37;;;;;;;1.60;1.20;;;9.50;98.20;;;;;;5028097;28;20904;-77
2023/10/25 03:39:05;;;;;;;1.60;1.10;;;9.60;98.20;;;;;;5043127;28;20563;-79
2023/10/25 03:41:33;;;;;;;1.60;1.10;;;9.60;98.20;;;;;;5021860;28;20479;-79
2023/10/25 03:44:00;;;;;;;1.57;1.10;;;9.60;98.20;;;;;;5031100;28;20467;-78
2023/10/25 03:46:27;;;;;;;1.60;1.17;;;9.60;98.20;;;;;;5020014;28;20860;-76
2023/10/25 03:48:53;;;;;;;1.60;1.10;;;9.60;98.20;;;;;;5029621;28;20476;-79
2023/10/25 03:51:20;;;;;;;1.60;1.20;;;9.60;98.20;;;;;;5029623;28;20477;-78
2023/10/25 03:53:47;;;;;;;1.60;1.20;;;9.60;98.20;;;;;;5046407;28;20468;-79
2023/10/25 03:56:14;;;;;;;1.60;1.10;;;9.60;98.20;;;;;;5024430;28;20494;-80
2023/10/25 03:58:42;;;;;;;1.60;1.20;;;9.60;98.20;;;;;;5042319;28;20466;-79
2023/10/25 04:01:08;;;;;;;1.60;1.20;;;9.60;98.20;;;;;;5023827;28;20504;-78
2023/10/25 04:03:35;;;;;;;1.60;1.13;;;9.60;98.20;;;;;;5043347;28;20483;-78
2023/10/25 04:06:03;;;;;;;1.60;1.30;;;9.60;98.20;;;;;;5022159;28;20611;-79
2023/10/25 04:08:31;;;;;;;1.60;1.20;;;9.60;98.20;;;;;;5042713;28;20482;-77
2023/10/25 04:10:58;;;;;;;1.60;1.20;;;9.60;98.20;;;;;;5019734;28;20486;-78
2023/10/25 04:13:26;;;;;;;1.60;1.20;;;9.60;98.20;;;;;;5048840;28;20550;-77
2023/10/25 04:15:58;;;;;;;1.60;1.10;;;9.60;98.20;;;;;;5027334;28;20522;-77
2023/10/25 04:18:26;;;;;;;1.60;1.10;;;9.60;98.20;;;;;;5053849;28;20470;-78
2023/10/25 04:20:54;;;;;;;1.60;1.20;;;9.60;98.20;;;;;;5029499;28;20464;-78
2023/10/25 04:23:22;;;;;;;1.60;1.20;;;9.60;98.20;;;;;;5040164;28;20474;-77
2023/10/25 04:25:49;;;;;;;1.60;1.10;;;9.60;98.20;;;;;;5029071;28;21024;-78
2023/10/25 04:28:17;;;;;;;1.60;1.20;;;9.60;98.20;;;;;;5042536;28;20471;-77
2023/10/25 04:30:43;;;;;;;1.60;1.17;;;9.60;98.20;;;;;;5035242;28;20837;-78
2023/10/25 04:33:12;;;;;;;1.60;1.20;;;9.70;98.20;;;;;;5036963;28;20854;-78
2023/10/25 04:35:40;;;;;;;1.60;1.10;;;9.70;98.20;;;;;;5034974;28;20976;-78
2023/10/25 04:38:06;;;;;;;1.60;1.20;;;9.70;98.20;;;;;;5039984;28;20784;-78
2023/10/25 04:40:33;;;;;;;1.60;1.20;;;9.80;98.20;;;;;;5040613;28;20451;-78
2023/10/25 04:43:00;;;;;;;1.60;1.10;;;9.80;98.20;;;;;;5041026;28;20477;-79
2023/10/25 04:45:28;;;;;;;1.60;1.20;;;9.80;98.20;;;;;;5038151;28;20469;-79
2023/10/25 04:47:55;;;;;;;1.60;1.20;;;9.80;98.20;;;;;;5037801;28;20920;-77
2023/10/25 04:50:24;;;;;;;1.60;1.10;;;9.80;98.20;;;;;;5041732;28;20873;-79
2023/10/25 04:52:51;;;;;;;1.60;1.30;;;9.70;98.20;;;;;;5035241;28;20481;-78
2023/10/25 04:55:18;;;;;;;1.60;1.10;;;9.70;98.20;;;;;;5032836;28;20753;-78
2023/10/25 04:57:45;;;;;;;1.60;1.20;;;9.70;98.20;;;;;;5040475;28;20521;-78
2023/10/25 05:00:12;;;;;;;1.60;1.20;;;9.70;98.20;;;;;;5041337;28;20553;-79
2023/10/25 05:02:39;;;;;;;1.60;1.20;;;9.70;98.20;;;;;;5036321;28;20528;-77
2023/10/25 05:05:08;;;;;;;1.60;1.10;;;9.70;98.20;;;;;;5033989;28;20609;-80
2023/10/25 05:07:37;;;;;;;1.60;1.20;;;9.70;98.20;;;;;;5032990;28;20490;-77
2023/10/25 05:10:05;;;;;;;1.57;1.10;;;9.60;98.20;;;;;;5034267;28;20869;-76
2023/10/25 05:12:38;;;;;;;1.60;1.13;;;9.60;98.20;;;;;;5031226;28;20490;-76
2023/10/25 05:15:06;;;;;;;1.60;1.10;;;9.60;98.20;;;;;;5025716;28;20469;-78
2023/10/25 05:17:34;;;;;;;1.57;1.20;;;9.50;98.20;;;;;;5033836;28;20534;-76
2023/10/25 05:20:01;;;;;;;1.57;1.10;;;9.50;98.20;;;;;;5034500;28;20498;-78
2023/10/25 05:22:30;;;;;;;1.70;1.40;;;9.50;98.20;;;;;;5037318;28;20478;-78
2023/10/25 05:24:59;;;;;;;1.60;1.10;;;9.50;98.20;;;;;;5035916;28;21047;-78
2023/10/25 05:27:26;;;;;;;1.60;1.20;;;9.50;98.20;;;;;;5028856;28;20485;-78
2023/10/25 05:29:54;;;;;;;1.60;1.20;;;9.40;98.20;;;;;;5038210;28;20511;-77
2023/10/25 05:32:21;;;;;;;1.60;1.20;;;9.50;98.20;;;;;;5039373;28;20509;-77
2023/10/25 05:34:49;;;;;;;1.60;1.20;;;9.50;98.20;;;;;;5039793;28;20478;-76
2023/10/25 05:37:16;;;;;;;1.60;1.20;;;9.50;98.20;;;;;;5018316;28;20627;-78
2023/10/25 05:39:43;;;;;;;1.60;1.10;;;9.50;98.20;;;;;;5034044;28;20463;-77
2023/10/25 05:42:17;;;;;;;1.60;1.10;;;9.50;98.20;;;;;;5024118;28;20953;-77
2023/10/25 05:44:45;;;;;;;1.60;1.30;;;9.50;98.20;;;;;;5032380;28;21857;-76
2023/10/25 05:47:12;;;;;;;1.60;1.20;;;9.50;98.20;;;;;;5025668;28;21002;-76
2023/10/25 05:49:39;;;;;;;1.60;1.20;;;9.50;98.20;;;;;;5031589;28;20487;-76
2023/10/25 05:52:07;;;;;;;1.60;1.20;;;9.60;98.20;;;;;;5025712;28;20927;-78
2023/10/25 05:54:35;;;;;;;1.60;1.10;;;9.60;98.20;;;;;;5034626;28;20871;-80
2023/10/25 05:57:03;;;;;;;1.60;1.10;;;9.60;98.20;;;;;;5028768;28;20701;-78
2023/10/25 05:59:32;;;;;;;1.60;1.20;;;9.50;98.20;;;;;;5036519;28;20463;-78
2023/10/25 06:02:07;;;;;;;1.60;1.20;;;9.50;98.20;;;;;;5029505;28;20981;-79
2023/10/25 06:04:36;;;;;;;1.60;1.10;;;9.50;98.20;;;;;;5037702;28;20486;-79
2023/10/25 06:07:04;;;;;;;1.60;1.10;;;9.50;98.20;;;;;;5028206;28;20482;-78
2023/10/25 06:09:31;;;;;;;1.60;1.20;;;9.50;98.20;;;;;;5037512;28;20545;-76
2023/10/25 06:11:59;;;;;;;1.60;1.10;;;9.50;98.20;;;;;;5035526;28;20477;-79
2023/10/25 06:14:26;;;;;;;1.60;1.20;;;9.50;98.20;;;;;;5039621;28;20467;-78
2023/10/25 06:16:54;;;;;;;1.60;1.20;;;9.50;98.20;;;;;;5028382;28;20487;-77
2023/10/25 06:19:21;;;;;;;1.60;1.17;;;9.50;98.20;;;;;;5044411;28;20531;-77
2023/10/25 06:21:48;;;;;;;1.60;1.20;;;9.50;98.20;;;;;;5023617;28;20507;-78
2023/10/25 06:24:15;;;;;;;1.60;1.20;;;9.50;98.20;;;;;;5035877;28;20843;-77
2023/10/25 06:26:42;;;;;;;1.60;1.20;;;9.60;98.20;;;;;;5029137;28;20509;-77
2023/10/25 06:29:08;;;;;;;1.60;1.17;;;9.60;98.20;;;;;;5040591;28;20464;-77
2023/10/25 06:31:36;;;;;;;1.60;1.10;;;9.60;98.20;;;;;;5025506;28;20485;-77
2023/10/25 06:34:05;;;;;;;1.60;1.10;;;9.60;98.20;;;;;;5038980;28;20554;-77
2023/10/25 06:36:32;;;;;;;1.57;1.10;;;9.60;98.20;;;;;;5024017;28;20490;-77
2023/10/25 06:39:04;;;;;;;1.60;1.20;;;9.60;98.20;;;;;;5044008;28;20481;-77
2023/10/25 06:41:32;;;;;;;1.60;1.20;;;9.70;98.20;;;;;;5026419;28;20502;-78
2023/10/25 06:43:59;;;;;;;1.60;1.20;;;9.70;98.20;;;;;;5042679;28;20573;-76
2023/10/25 06:46:26;;;;;;;1.60;1.20;;;9.70;98.20;;;;;;5028553;28;20488;-78
2023/10/25 06:48:56;;;;;;;1.60;1.10;;;9.70;98.20;;;;;;5040319;28;20462;-79
2023/10/25 06:51:24;;;;;;;1.60;1.13;;;9.70;98.20;;;;;;5029859;28;20541;-78
2023/10/25 06:53:52;;;;;;;1.63;1.33;;;9.70;98.20;;;;;;5045069;28;20467;-78
2023/10/25 06:56:19;;;;;;;1.60;1.13;;;9.80;98.20;;;;;;5028272;28;21003;-78
2023/10/25 06:58:47;;;;;;;1.60;1.20;;;9.80;98.20;;;;;;5046537;28;20467;-79
2023/10/25 07:01:17;;;;;;;1.60;1.13;;;9.80;98.20;;;;;;5031134;28;20485;-78
2023/10/25 07:03:47;;;;;;;1.60;1.13;;;9.80;98.20;;;;;;5040808;28;20981;-77
2023/10/25 07:06:16;;;;;;;1.60;1.10;;;9.90;98.20;;;;;;5022814;28;20565;-78
2023/10/25 07:08:45;;;;;;;1.53;1.10;;;9.90;98.20;;;;;;5040218;28;20466;-79
2023/10/25 07:11:12;;;;;;;1.57;1.10;;;9.90;98.20;;;;;;5024061;28;20487;-78
2023/10/25 07:13:38;;;;;;;1.60;1.10;;;9.90;98.20;;;;;;5030289;28;20474;-78
2023/10/25 07:16:06;;;;;;;1.60;1.10;;;9.90;98.20;;;;;;5026567;28;20573;-77
2023/10/25 07:18:33;;;;;;;1.60;1.10;;;9.90;98.20;;;;;;5044310;28;20463;-77
2023/10/25 07:21:00;;;;;;;1.60;1.10;;;10.00;98.20;;;;;;5017146;28;20470;-79
2023/10/25 07:23:27;;;;;;;1.60;1.30;;;10.00;98.20;;;;;;5047931;28;20470;-80
2023/10/25 07:25:55;;;;;;;1.60;1.10;;;10.00;98.20;;;;;;5021018;28;20488;-78
2023/10/25 07:28:22;;;;;;;1.60;1.20;;;10.00;98.20;;;;;;5044292;28;20928;-77
2023/10/25 07:30:50;;;;;;;1.60;1.20;;;10.00;98.20;;;;;;5022494;28;20960;-76
2023/10/25 07:33:17;;;;;;;1.60;1.13;;;10.10;98.20;;;;;;5047887;28;20865;-76
2023/10/25 07:35:44;;;;;;;1.60;1.10;;;10.10;98.20;;;;;;5031932;28;20483;-78
2023/10/25 07:38:11;;;;;;;1.60;1.10;;;10.10;98.20;;;;;;5032600;28;20568;-78
2023/10/25 07:40:39;;;;;;;1.60;1.10;;;10.20;98.20;;;;;;5032225;28;20460;-76
2023/10/25 07:43:08;;;;;;;1.60;1.20;;;10.20;98.20;;;;;;5032770;28;20479;-79
2023/10/25 07:45:34;;;;;;;1.60;1.10;;;10.30;98.20;;;;;;5031809;28;20469;-77
2023/10/25 07:48:01;;;;;;;1.60;1.10;;;10.30;98.20;;;;;;5029043;28;20482;-76
2023/10/25 07:50:28;;;;;;;1.60;1.10;;;10.30;98.20;;;;;;5038441;28;20551;-81
2023/10/25 07:52:55;;;;;;;1.60;1.10;;;10.30;98.20;;;;;;5015580;28;20573;-79
2023/10/25 07:55:22;;;;;;;3.87;3.57;;;10.40;98.20;;;;;;5028527;28;20463;-79
2023/10/25 07:57:49;;;;;;;1.60;1.13;;;10.40;98.20;;;;;;5036242;28;20485;-78
2023/10/25 08:00:18;;;;;;;1.60;1.10;;;10.50;98.20;;;;;;5029918;28;20476;-78
2023/10/25 08:02:44;;;;;;;1.60;1.30;;;10.50;98.20;;;;;;5032573;28;20509;-79
2023/10/25 08:05:11;;;;;;;1.60;1.10;;;10.60;98.20;;;;;;5031046;28;20839;-80
2023/10/25 08:07:38;;;;;;;1.60;1.10;;;10.70;98.20;;;;;;5031711;28;20985;-79
2023/10/25 08:10:06;;;;;;;1.60;1.10;;;10.70;98.20;;;;;;5029272;28;20459;-79
2023/10/25 08:12:36;;;;;;;1.60;1.10;;;10.80;98.20;;;;;;5027635;28;20609;-80
2023/10/25 08:15:05;;;;;;;1.60;1.20;;;10.90;98.20;;;;;;5032444;28;20496;-80
2023/10/25 08:17:33;;;;;;;1.60;1.00;;;11.00;98.20;;;;;;5028690;28;20486;-80
2023/10/25 08:20:00;;;;;;;1.60;1.10;;;11.10;98.20;;;;;;5031483;28;21127;-78
2023/10/25 08:22:26;;;;;;;1.60;1.10;;;11.10;98.20;;;;;;5035587;28;20470;-81
2023/10/25 08:24:53;;;;;;;1.60;1.10;;;11.20;98.20;;;;;;5033230;28;20590;-80
2023/10/25 08:27:21;;;;;;;1.60;1.20;;;11.30;98.20;;;;;;5034193;28;20489;-79
2023/10/25 08:29:48;;;;;;;1.60;1.10;;;11.40;98.20;;;;;;5032449;28;20568;-80
2023/10/25 08:32:14;;;;;;;1.60;1.10;;;11.60;98.20;;;;;;5029077;28;20519;-81
2023/10/25 08:34:46;;;;;;;1.60;1.10;;;11.80;98.20;;;;;;5031138;28;20470;-79
2023/10/25 08:37:13;;;;;;;1.60;1.10;;;11.90;98.20;;;;;;5014101;28;20483;-79
2023/10/25 08:39:44;;;;;;;1.60;1.10;;;11.90;98.20;;;;;;5027939;28;20470;-79
2023/10/25 08:42:12;;;;;;;1.60;1.00;;;12.00;98.20;;;;;;5024416;28;20584;-79
2023/10/25 08:44:40;;;;;;;1.60;1.10;;;12.00;98.20;;;;;;5027203;28;20465;-78
2023/10/25 08:47:09;;;;;;;1.60;1.10;;;12.00;98.20;;;;;;5016483;28;20735;-79
2023/10/25 08:49:37;;;;;;;1.60;1.00;;;12.00;98.20;;;;;;5028711;28;20464;-81
2023/10/25 08:52:06;;;;;;;1.60;1.10;;;12.00;98.20;;;;;;5031777;28;20580;-78
2023/10/25 08:54:36;;;;;;;1.60;1.10;;;12.00;98.20;;;;;;5031952;28;20471;-83
2023/10/25 08:57:05;;;;;;;1.60;1.10;;;11.90;98.20;;;;;;5027406;28;20553;-79
2023/10/25 08:59:40;;;;;;;1.60;1.10;;;11.90;98.20;;;;;;5039666;28;20982;-78
2023/10/25 09:02:08;;;;;;;1.57;1.00;;;11.90;98.20;;;;;;5031809;28;21003;-80
2023/10/25 09:04:34;;;;;;;1.60;1.20;;;11.80;98.20;;;;;;5037966;28;20459;-80
2023/10/25 09:07:01;;;;;;;1.60;1.10;;;11.80;98.20;;;;;;5032131;28;20482;-79
2023/10/25 09:09:40;;;;;;;1.60;1.00;;;11.80;98.20;;;;;;5041147;28;20478;-79
2023/10/25 09:12:19;;;;;;;1.60;1.03;;;11.80;98.20;;;;;;5028770;28;20500;-80
2023/10/25 09:14:47;;;;;;;1.60;1.00;;;11.70;98.20;;;;;;5036302;28;20600;-79
2023/10/25 09:17:13;;;;;;;1.60;1.00;;;11.70;98.20;;;;;;5029730;28;20494;-82
2023/10/25 09:19:43;;;;;;;1.60;1.00;;;11.70;98.20;;;;;;5034770;28;20981;-79
2023/10/25 09:22:21;;;;;;;1.60;1.00;;;11.70;98.20;;;;;;5018839;28;20486;-80
2023/10/25 09:24:50;;;;;;;1.57;1.03;;;11.70;98.20;;;;;;5034738;28;20847;-79
2023/10/25 09:27:43;;;;;;;1.60;1.03;;;11.70;98.20;;;;;;5037688;28;20539;-80
2023/10/25 09:30:15;;;;;;;1.60;1.10;;;11.60;98.20;;;;;;5031040;28;20859;-82
2023/10/25 09:32:42;;;;;;;1.60;1.10;;;11.60;98.20;;;;;;5036822;28;20483;-80
2023/10/25 09:35:11;;;;;;;1.60;1.10;;;11.60;98.20;;;;;;5033714;28;20509;-80
2023/10/25 09:37:38;;;;;;;1.60;1.10;;;11.60;98.20;;;;;;5033792;28;20486;-80
2023/10/25 09:40:07;;;;;;;1.60;1.10;;;11.70;98.20;;;;;;5032236;28;20467;-81
2023/10/25 09:42:37;;;;;;;1.60;1.20;;;11.70;98.20;;;;;;5022986;28;20475;-82
2023/10/25 09:45:07;;;;;;;1.53;1.00;;;11.70;98.20;;;;;;5033094;28;20467;-82
2023/10/25 09:47:39;;;;;;;1.60;1.10;;;11.70;98.20;;;;;;5034160;28;20483;-81
2023/10/25 09:50:27;;;;;;;1.60;1.07;;;11.80;98.20;;;;;;5032651;28;20471;-81
2023/10/25 09:53:04;;;;;;;1.60;1.10;;;11.80;98.20;;;;;;5032621;28;20483;-82
2023/10/25 09:55:34;;;;;;;1.57;1.00;;;11.80;98.20;;;;;;5033521;28;20459;-81
2023/10/25 09:58:05;;;;;;;1.60;1.10;;;11.80;98.20;;;;;;5015622;28;20561;-81
2023/10/25 10:00:32;;;;;;;1.60;1.10;;;11.80;98.20;;;;;;5034229;28;20458;-79
2023/10/25 10:03:07;;;;;;;1.60;1.20;;;11.90;98.20;;;;;;5011412;28;20478;-78
2023/10/25 10:05:41;;;;;;;1.60;1.13;;;11.90;98.20;;;;;;5029731;28;20574;-79
2023/10/25 10:08:15;;;;;;;1.60;1.10;;;11.90;98.20;;;;;;5028477;28;20480;-79
2023/10/25 10:10:49;;;;;;;1.57;1.03;;;11.90;98.20;;;;;;5029049;28;20531;-78
2023/10/25 10:13:20;;;;;;;1.53;1.00;;;11.90;98.20;;;;;;5026518;28;20977;-80
2023/10/25 10:16:00;;;;;;;1.53;1.00;;;11.80;98.20;;;;;;5031096;28;20566;-81
2023/10/25 10:18:29;;;;;;;1.60;1.10;;;11.80;98.20;;;;;;5050936;28;20562;-79
2023/10/25 10:21:06;;;;;;;2.53;2.33;;;11.80;98.20;;;;;;5031187;28;20493;-79
2023/10/25 10:23:49;;;;;;;1.60;1.07;;;11.80;98.20;;;;;;5028948;28;20556;-79
2023/10/25 10:26:49;;;;;;;1.60;1.07;;;11.80;98.20;;;;;;5023386;28;20492;-80
2023/10/25 10:29:40;;;;;;;1.53;1.00;;;11.80;98.20;;;;;;5036361;28;20557;-79
2023/10/25 10:32:15;;;;;;;1.57;1.10;;;11.70;98.20;;;;;;5013641;28;20506;-83
2023/10/25 10:34:47;;;;;;;1.60;1.10;;;11.70;98.20;;;;;;5028142;28;20508;-79
2023/10/25 10:37:34;;;;;;;1.53;1.10;;;11.70;98.20;;;;;;5031222;28;20588;-81
2023/10/25 10:40:14;;;;;;;1.53;1.00;;;11.70;98.20;;;;;;5034952;28;20469;-83
2023/10/25 10:42:43;;;;;;;1.60;1.10;;;11.70;98.20;;;;;;5035570;28;20478;-80
2023/10/25 10:45:15;;;;;;;1.57;1.10;;;11.70;98.20;;;;;;5032307;28;20463;-82
2023/10/25 10:47:43;;;;;;;1.60;1.10;;;11.70;98.20;;;;;;5039684;28;20508;-83
2023/10/25 10:50:12;;;;;;;1.53;1.00;;;11.70;98.20;;;;;;5036598;28;20466;-80
2023/10/25 10:52:40;;;;;;;1.60;1.10;;;11.70;98.20;;;;;;5019162;28;21071;-81
2023/10/25 10:55:15;;;;;;;1.57;1.00;;;11.70;98.20;;;;;;5032650;28;21198;-80
2023/10/25 10:57:44;;;;;;;1.53;1.00;;;11.70;98.20;;;;;;5017861;28;20522;-81
2023/10/25 11:00:17;;;;;;;1.60;1.20;;;11.60;98.20;;;;;;5032911;28;20966;-79
2023/10/25 11:02:46;;;;;;;1.60;1.10;;;11.60;98.20;;;;;;5032272;28;20882;-81
2023/10/25 11:05:15;;;;;;;1.60;1.10;;;11.60;98.20;;;;;;5031874;28;20858;-80
2023/10/25 11:07:42;;;;;;;1.60;1.10;;;11.50;98.20;;;;;;5011915;28;20484;-81
2023/10/25 11:10:10;;;;;;;1.60;1.20;;;11.50;98.20;;;;;;5026529;28;20625;-80
2023/10/25 11:12:39;;;;;;;1.53;1.03;;;11.50;98.20;;;;;;5012183;28;20913;-79
2023/10/25 11:15:10;;;;;;;1.60;1.03;;;11.50;98.20;;;;;;5027933;28;20498;-81
2023/10/25 11:17:37;;;;;;;1.60;1.10;;;11.40;98.20;;;;;;5016604;28;20816;-80
2023/10/25 11:20:05;;;;;;;1.60;1.10;;;11.40;98.20;;;;;;5032390;28;20700;-79
2023/10/25 11:22:31;;;;;;;1.60;1.10;;;11.40;98.20;;;;;;5029424;28;20566;-80
2023/10/25 11:25:23;;;;;;;1.57;1.00;;;11.40;98.20;;;;;;5032449;28;20513;-80
2023/10/25 11:27:50;;;;;;;1.60;1.10;;;11.40;98.20;;;;;;5021362;28;20518;-79
2023/10/25 11:30:34;;;;;;;1.53;1.10;;;11.40;98.20;;;;;;5026176;28;20463;-81
2023/10/25 11:33:02;;;;;;;1.60;1.10;;;11.40;98.20;;;;;;5032842;28;20634;-80
2023/10/25 11:36:28;;;;;;;1.57;1.10;;;11.40;98.20;;;;;;5031349;28;20498;-81
2023/10/25 11:39:00;;;;;;;1.57;1.00;;;11.40;98.20;;;;;;5022088;28;20459;-82
2023/10/25 11:41:27;;;;;;;2.70;2.50;;;11.40;98.20;;;;;;5017119;28;20479;-80
2023/10/25 11:43:56;;;;;;;1.60;1.10;;;11.40;98.20;;;;;;5021398;28;20459;-80
2023/10/25 11:46:33;;;;;;;1.60;1.10;;;11.40;98.20;;;;;;5015323;28;20489;-79
2023/10/25 11:49:01;;;;;;;1.60;1.20;;;11.40;98.20;;;;;;5023242;28;21012;-80
2023/10/25 11:51:28;;;;;;;1.70;1.33;;;11.40;98.20;;;;;;5017543;28;20487;-79
2023/10/25 11:53:56;;;;;;;1.60;1.10;;;11.40;98.20;;;;;;5022477;28;20501;-79
2023/10/25 11:56:24;;;;;;;1.60;1.10;;;11.40;98.20;;;;;;5016579;28;21113;-79
2023/10/25 11:58:52;;;;;;;1.60;1.10;;;11.30;98.20;;;;;;5023716;28;20471;-80
2023/10/25 12:01:18;;;;;;;1.60;1.27;;;11.30;98.20;;;;;;5020109;28;20947;-80
2023/10/25 12:03:49;;;;;;;1.60;1.10;;;11.30;98.20;;;;;;5043808;28;20473;-80
2023/10/25 12:06:16;;;;;;;1.60;1.10;;;11.30;98.20;;;;;;5016326;28;20529;-80
2023/10/25 12:08:43;;;;;;;1.53;1.10;;;11.30;98.20;;;;;;5024065;28;20464;-80
2023/10/25 12:11:11;;;;;;;1.60;1.10;;;11.30;98.20;;;;;;5017473;28;20486;-81
2023/10/25 12:13:38;;;;;;;1.60;1.03;;;11.30;98.20;;;;;;5043614;28;20483;-80
2023/10/25 12:16:06;;;;;;;1.60;1.17;;;11.30;98.20;;;;;;5021763;28;20757;-79
2023/10/25 12:18:35;;;;;;;1.60;1.20;;;11.40;98.20;;;;;;5040097;28;20467;-79
2023/10/25 12:21:04;;;;;;;1.60;1.10;;;11.40;98.20;;;;;;5018772;28;20463;-78
2023/10/25 12:23:32;;;;;;;1.60;1.10;;;11.40;98.20;;;;;;5039928;28;20542;-81
2023/10/25 12:25:59;;;;;;;1.60;1.10;;;11.40;98.20;;;;;;5019680;28;21033;-79
2023/10/25 12:28:49;;;;;;;2.00;1.57;;;11.40;98.20;;;;;;5044957;28;20482;-80
2023/10/25 12:31:16;;;;;;;1.60;1.20;;;11.40;98.20;;;;;;5017894;28;20510;-80
2023/10/25 12:33:43;;;;;;;1.53;1.10;;;11.40;98.20;;;;;;5017814;28;20526;-80
2023/10/25 12:36:11;;;;;;;1.60;1.23;;;11.40;98.20;;;;;;5018439;28;20482;-81
2023/10/25 12:38:38;;;;;;;1.60;1.10;;;11.40;98.20;;;;;;5026125;28;20459;-79
2023/10/25 12:41:42;;;;;;;1.60;1.10;;;11.40;98.20;;;;;;5020538;28;20474;-80
2023/10/25 12:44:09;;;;;;;1.53;1.10;;;11.50;98.20;;;;;;5026633;28;20465;-79
2023/10/25 12:46:40;;;;;;;1.60;1.17;;;11.50;98.20;;;;;;5012890;28;20486;-79
2023/10/25 12:49:07;;;;;;;1.60;1.10;;;11.50;98.20;;;;;;5026379;28;20470;-83
2023/10/25 12:51:50;;;;;;;1.60;1.00;;;11.50;98.20;;;;;;5015041;28;20490;-83
2023/10/25 12:54:17;;;;;;;1.60;1.10;;;11.50;98.20;;;;;;5025029;28;20463;-79
2023/10/25 12:56:44;;;;;;;1.53;1.00;;;11.50;98.20;;;;;;5025599;28;20510;-82
2023/10/25 12:59:11;;;;;;;1.60;1.10;;;11.50;98.20;;;;;;5034849;28;20463;-79
2023/10/25 13:01:38;;;;;;;1.60;1.20;;;11.50;98.20;;;;;;5014444;28;21249;-83